Time;durP1;ratioP1;P1;durP2;ratioP2;P2;SDS_P1;SDS_P2;PMS_P1;PMS_P2;Temp;Humidity;BMP_temperature;BMP_pressure;BME280_temperature;BME280_humidity;BME280_pressure;Samples;Min_cycle;Max_cycle;Signal;HPM_P1;HPM_P2
2023/10/21 00:01:07;;;;;;;13.87;12.30;;;;;;;;;;5012107;28;20309;-50
2023/10/21 00:03:33;;;;;;;15.67;13.37;;;;;;;;;;5011967;28;20300;-49
2023/10/21 00:05:59;;;;;;;14.13;12.60;;;;;;;;;;5008279;28;20205;-49
2023/10/21 00:08:25;;;;;;;15.67;13.97;;;;;;;;;;5011981;28;20301;-48
2023/10/21 00:11:02;;;;;;;13.60;11.50;;;;;;;;;;5012003;28;20217;-51
2023/10/21 00:13:28;;;;;;;16.87;13.70;;;;;;;;;;5012030;28;20197;-50
2023/10/21 00:15:54;;;;;;;15.47;13.07;;;;;;;;;;5011723;28;20259;-50
2023/10/21 00:18:20;;;;;;;15.77;12.87;;;;;;;;;;5011802;28;20668;-50
2023/10/21 00:20:46;;;;;;;14.17;12.67;;;;;;;;;;5013706;28;20190;-50
2023/10/21 00:23:12;;;;;;;14.87;12.53;;;;;;;;;;5015878;28;20198;-50
2023/10/21 00:25:38;;;;;;;18.40;14.70;;;;;;;;;;5015686;28;20691;-48
2023/10/21 00:28:05;;;;;;;17.27;15.00;;;;;;;;;;5015769;28;20202;-49
2023/10/21 00:30:31;;;;;;;15.87;14.17;;;;;;;;;;5016005;28;20206;-50
2023/10/21 00:32:57;;;;;;;22.93;14.43;;;;;;;;;;5015501;28;20275;-56
2023/10/21 00:35:23;;;;;;;16.10;14.00;;;;;;;;;;5015680;28;20229;-50
2023/10/21 00:37:49;;;;;;;17.37;14.53;;;;;;;;;;5015534;28;20208;-49
2023/10/21 00:40:15;;;;;;;17.17;14.03;;;;;;;;;;5015668;28;20655;-49
2023/10/21 00:42:41;;;;;;;15.40;13.80;;;;;;;;;;5015435;28;20292;-49
2023/10/21 00:45:09;;;;;;;15.90;13.80;;;;;;;;;;5015364;28;20575;-49
2023/10/21 00:47:35;;;;;;;16.30;14.53;;;;;;;;;;5013996;28;20758;-49
2023/10/21 00:50:03;;;;;;;15.30;13.70;;;;;;;;;;5015419;28;20198;-49
2023/10/21 00:52:29;;;;;;;19.40;14.73;;;;;;;;;;5015409;28;20216;-49
2023/10/21 00:54:57;;;;;;;16.47;14.20;;;;;;;;;;5015218;28;20202;-49
2023/10/21 00:57:24;;;;;;;17.57;15.67;;;;;;;;;;5015283;28;20198;-49
2023/10/21 00:59:50;;;;;;;22.00;15.97;;;;;;;;;;5015210;28;20232;-49
2023/10/21 01:02:17;;;;;;;18.13;13.53;;;;;;;;;;5015109;28;20229;-50
2023/10/21 01:04:43;;;;;;;16.67;14.33;;;;;;;;;;5015036;28;20560;-49
2023/10/21 01:07:15;;;;;;;16.40;14.50;;;;;;;;;;5014942;28;20588;-49
2023/10/21 01:09:41;;;;;;;16.10;14.40;;;;;;;;;;5015000;28;20224;-49
2023/10/21 01:12:07;;;;;;;15.77;14.07;;;;;;;;;;5014923;28;20189;-49
2023/10/21 01:14:33;;;;;;;19.50;14.37;;;;;;;;;;5014983;28;20292;-49
2023/10/21 01:16:59;;;;;;;17.70;15.57;;;;;;;;;;5014910;28;20311;-49
2023/10/21 01:19:26;;;;;;;16.00;14.30;;;;;;;;;;5014847;28;20575;-49
2023/10/21 01:21:53;;;;;;;26.67;15.23;;;;;;;;;;5014584;28;20320;-49
2023/10/21 01:24:20;;;;;;;16.83;15.13;;;;;;;;;;5014796;28;20687;-49
2023/10/21 01:26:46;;;;;;;21.33;15.67;;;;;;;;;;5014675;28;20201;-49
2023/10/21 01:29:12;;;;;;;45.30;15.77;;;;;;;;;;5014686;28;20197;-49
2023/10/21 01:31:38;;;;;;;33.30;17.23;;;;;;;;;;5012997;28;20696;-49
2023/10/21 01:34:04;;;;;;;17.27;15.47;;;;;;;;;;5014523;28;20249;-49
2023/10/21 01:36:30;;;;;;;19.90;14.73;;;;;;;;;;5014720;28;20198;-49
2023/10/21 01:38:56;;;;;;;22.20;15.23;;;;;;;;;;5014770;28;20204;-49
2023/10/21 01:41:24;;;;;;;16.03;14.27;;;;;;;;;;5014242;28;20660;-49
2023/10/21 01:43:50;;;;;;;21.17;14.47;;;;;;;;;;5014435;28;20241;-49
2023/10/21 01:46:16;;;;;;;16.73;15.00;;;;;;;;;;5014466;28;20204;-49
2023/10/21 01:48:42;;;;;;;19.40;15.87;;;;;;;;;;5014271;28;20660;-49
2023/10/21 01:51:08;;;;;;;17.17;14.73;;;;;;;;;;5014285;28;20194;-49
2023/10/21 01:53:34;;;;;;;18.70;15.43;;;;;;;;;;5014240;28;20201;-49
2023/10/21 01:56:00;;;;;;;17.10;15.20;;;;;;;;;;5014295;28;20545;-49
2023/10/21 01:58:28;;;;;;;15.80;14.00;;;;;;;;;;5014091;28;20225;-49
2023/10/21 02:00:54;;;;;;;17.07;14.10;;;;;;;;;;5013883;28;20890;-49
2023/10/21 02:03:20;;;;;;;17.20;14.03;;;;;;;;;;5014098;28;20228;-49
2023/10/21 02:05:46;;;;;;;16.97;14.57;;;;;;;;;;5014142;28;20292;-49
2023/10/21 02:08:12;;;;;;;16.40;14.70;;;;;;;;;;5013924;28;20281;-49
2023/10/21 02:10:39;;;;;;;16.53;14.70;;;;;;;;;;5013891;28;20277;-49
2023/10/21 02:13:05;;;;;;;16.53;14.80;;;;;;;;;;5013728;28;20197;-49
2023/10/21 02:15:35;;;;;;;16.20;14.40;;;;;;;;;;5013894;28;20189;-49
2023/10/21 02:18:01;;;;;;;16.13;13.87;;;;;;;;;;5013798;28;20289;-49
2023/10/21 02:20:27;;;;;;;16.87;14.60;;;;;;;;;;5013769;28;20205;-49
2023/10/21 02:22:53;;;;;;;16.90;15.10;;;;;;;;;;5013512;28;20287;-49
2023/10/21 02:25:19;;;;;;;17.50;15.57;;;;;;;;;;5013696;28;20210;-49
2023/10/21 02:27:45;;;;;;;20.50;14.77;;;;;;;;;;5013750;28;20244;-49
2023/10/21 02:30:15;;;;;;;16.50;14.77;;;;;;;;;;5013430;28;20205;-49
2023/10/21 02:32:44;;;;;;;16.87;14.93;;;;;;;;;;5013662;28;20264;-49
2023/10/21 02:35:10;;;;;;;17.30;14.23;;;;;;;;;;5013308;28;20256;-49
2023/10/21 02:37:36;;;;;;;20.03;16.17;;;;;;;;;;5013372;28;20202;-49
2023/10/21 02:40:03;;;;;;;17.80;15.90;;;;;;;;;;5013368;28;20206;-49
2023/10/21 02:42:29;;;;;;;18.10;15.87;;;;;;;;;;5012869;28;20631;-49
2023/10/21 02:44:57;;;;;;;17.93;14.60;;;;;;;;;;5013052;28;20198;-49
2023/10/21 02:47:23;;;;;;;16.40;13.40;;;;;;;;;;5013176;28;20683;-49
2023/10/21 02:49:50;;;;;;;17.30;15.27;;;;;;;;;;5013227;28;20245;-49
2023/10/21 02:52:16;;;;;;;20.63;15.13;;;;;;;;;;5013147;28;20234;-49
2023/10/21 02:54:42;;;;;;;18.40;15.13;;;;;;;;;;5013154;28;20252;-49
2023/10/21 02:57:08;;;;;;;17.93;15.40;;;;;;;;;;5012900;28;20290;-49
2023/10/21 02:59:35;;;;;;;18.10;15.47;;;;;;;;;;5013052;28;20229;-49
2023/10/21 03:02:01;;;;;;;16.77;14.73;;;;;;;;;;5012822;28;20230;-49
2023/10/21 03:04:27;;;;;;;17.43;14.07;;;;;;;;;;5013079;28;20255;-49
2023/10/21 03:06:54;;;;;;;16.40;14.07;;;;;;;;;;5012772;28;20410;-49
2023/10/21 03:09:22;;;;;;;18.20;15.77;;;;;;;;;;5012931;28;20205;-49
2023/10/21 03:11:48;;;;;;;18.73;15.60;;;;;;;;;;5012756;28;20660;-49
2023/10/21 03:14:14;;;;;;;18.47;15.07;;;;;;;;;;5012821;28;20296;-49
2023/10/21 03:16:40;;;;;;;18.30;14.90;;;;;;;;;;5012587;28;20197;-49
2023/10/21 03:19:06;;;;;;;18.70;16.03;;;;;;;;;;5012551;28;20205;-49
2023/10/21 03:21:32;;;;;;;16.87;14.53;;;;;;;;;;5012680;28;20229;-49
2023/10/21 03:23:59;;;;;;;17.30;15.43;;;;;;;;;;5012520;28;20189;-49
2023/10/21 03:26:25;;;;;;;16.83;15.07;;;;;;;;;;5012593;28;20197;-49
2023/10/21 03:28:52;;;;;;;16.67;14.27;;;;;;;;;;5012448;28;20201;-49
2023/10/21 03:31:18;;;;;;;17.87;15.07;;;;;;;;;;5012325;28;20663;-49
2023/10/21 03:33:44;;;;;;;14.90;13.40;;;;;;;;;;5012601;28;20577;-49
2023/10/21 03:36:10;;;;;;;18.13;15.30;;;;;;;;;;5012634;28;20201;-49
2023/10/21 03:38:37;;;;;;;18.33;14.80;;;;;;;;;;5012403;28;20196;-49
2023/10/21 03:41:06;;;;;;;15.80;13.53;;;;;;;;;;5012164;28;20215;-49
2023/10/21 03:43:32;;;;;;;16.77;14.33;;;;;;;;;;5012250;28;20252;-49
2023/10/21 03:46:02;;;;;;;16.00;12.93;;;;;;;;;;5012042;28;20734;-49
2023/10/21 03:48:28;;;;;;;14.50;12.47;;;;;;;;;;5012259;28;20201;-49
2023/10/21 03:51:01;;;;;;;17.27;12.90;;;;;;;;;;5012131;28;20198;-49
2023/10/21 03:53:27;;;;;;;14.20;12.70;;;;;;;;;;5012369;28;20209;-49
2023/10/21 03:55:53;;;;;;;15.20;13.30;;;;;;;;;;5011313;28;20197;-49
2023/10/21 03:58:21;;;;;;;16.87;14.13;;;;;;;;;;5012216;28;20216;-49
2023/10/21 04:00:47;;;;;;;16.13;13.90;;;;;;;;;;5012144;28;20688;-49
2023/10/21 04:03:14;;;;;;;14.33;12.83;;;;;;;;;;5012030;28;20583;-49
2023/10/21 04:05:42;;;;;;;15.63;13.57;;;;;;;;;;5012134;28;20205;-49
2023/10/21 04:08:08;;;;;;;16.53;13.67;;;;;;;;;;5010221;28;20202;-49
2023/10/21 04:10:34;;;;;;;14.97;12.57;;;;;;;;;;5012093;28;20201;-49
2023/10/21 04:13:01;;;;;;;16.53;13.90;;;;;;;;;;5011922;28;20201;-49
2023/10/21 04:15:28;;;;;;;14.73;12.70;;;;;;;;;;5011994;28;20256;-49
2023/10/21 04:17:54;;;;;;;15.37;12.73;;;;;;;;;;5011810;28;20205;-49
2023/10/21 04:20:21;;;;;;;13.77;12.27;;;;;;;;;;5011838;28;20612;-49
2023/10/21 04:22:47;;;;;;;15.13;13.37;;;;;;;;;;5011960;28;20680;-49
2023/10/21 04:25:13;;;;;;;16.00;13.10;;;;;;;;;;5011753;28;20201;-49
2023/10/21 04:27:39;;;;;;;16.60;13.50;;;;;;;;;;5011769;28;20212;-49
2023/10/21 04:30:07;;;;;;;14.57;12.97;;;;;;;;;;5011572;28;20608;-49
2023/10/21 04:32:36;;;;;;;15.33;13.67;;;;;;;;;;5011798;28;20218;-49
2023/10/21 04:35:04;;;;;;;15.33;13.73;;;;;;;;;;5011747;28;20202;-49
2023/10/21 04:37:31;;;;;;;15.70;13.20;;;;;;;;;;5012147;28;20205;-49
2023/10/21 04:39:57;;;;;;;15.77;14.03;;;;;;;;;;5011612;28;20209;-49
2023/10/21 04:42:23;;;;;;;15.17;13.30;;;;;;;;;;5011514;28;20240;-49
2023/10/21 04:44:49;;;;;;;14.07;12.57;;;;;;;;;;5011630;28;20648;-49
2023/10/21 04:47:18;;;;;;;14.93;13.30;;;;;;;;;;5011553;28;20209;-49
2023/10/21 04:49:46;;;;;;;14.40;12.73;;;;;;;;;;5011700;28;20204;-49
2023/10/21 04:52:12;;;;;;;15.67;13.97;;;;;;;;;;5011615;28;20204;-49
2023/10/21 04:54:40;;;;;;;14.47;12.90;;;;;;;;;;5011414;28;20213;-49
2023/10/21 04:57:05;;;;;;;17.30;13.53;;;;;;;;;;5011404;28;20224;-49
2023/10/21 04:59:31;;;;;;;16.13;13.13;;;;;;;;;;5011734;28;20209;-49
2023/10/21 05:01:57;;;;;;;15.60;13.00;;;;;;;;;;5011199;28;20241;-49
2023/10/21 05:04:23;;;;;;;13.20;11.80;;;;;;;;;;5011739;28;20560;-49
2023/10/21 05:06:51;;;;;;;14.23;11.87;;;;;;;;;;5013385;28;20201;-48
2023/10/21 05:09:17;;;;;;;13.03;11.73;;;;;;;;;;5015103;28;20259;-49
2023/10/21 05:11:43;;;;;;;16.33;12.93;;;;;;;;;;5015093;28;20198;-48
2023/10/21 05:14:09;;;;;;;14.20;12.80;;;;;;;;;;5014931;28;20233;-49
2023/10/21 05:16:35;;;;;;;14.47;12.60;;;;;;;;;;5014827;28;20193;-49
2023/10/21 05:19:01;;;;;;;14.43;11.87;;;;;;;;;;5015001;28;20206;-49
2023/10/21 05:21:27;;;;;;;13.70;12.30;;;;;;;;;;5014752;28;20321;-49
2023/10/21 05:23:55;;;;;;;14.10;12.67;;;;;;;;;;5014784;28;20202;-49
2023/10/21 05:26:21;;;;;;;13.43;12.13;;;;;;;;;;5014746;28;20201;-49
2023/10/21 05:28:48;;;;;;;12.57;11.37;;;;;;;;;;5014880;28;20208;-49
2023/10/21 05:31:14;;;;;;;12.40;11.20;;;;;;;;;;5014725;28;20283;-49
2023/10/21 05:33:40;;;;;;;13.40;12.03;;;;;;;;;;5014633;28;20613;-49
2023/10/21 05:36:06;;;;;;;13.37;11.97;;;;;;;;;;5014437;28;20209;-49
2023/10/21 05:38:32;;;;;;;13.40;11.63;;;;;;;;;;5014759;28;20252;-49
2023/10/21 05:41:00;;;;;;;11.70;10.50;;;;;;;;;;5014431;28;20221;-49
2023/10/21 05:43:26;;;;;;;11.53;10.43;;;;;;;;;;5014669;28;20363;-49
2023/10/21 05:45:53;;;;;;;12.83;11.53;;;;;;;;;;5014265;28;20205;-49
2023/10/21 05:48:19;;;;;;;13.63;11.37;;;;;;;;;;5014606;28;20208;-49
2023/10/21 05:50:47;;;;;;;12.73;11.43;;;;;;;;;;5014435;28;20201;-49
2023/10/21 05:53:13;;;;;;;12.03;10.87;;;;;;;;;;5014179;28;20293;-48
2023/10/21 05:55:42;;;;;;;12.57;11.27;;;;;;;;;;5007450;28;20478;-48
2023/10/21 05:58:10;;;;;;;11.87;10.67;;;;;;;;;;5000573;28;20297;-48
2023/10/21 06:00:36;;;;;;;13.73;12.27;;;;;;;;;;5000705;28;20264;-49
2023/10/21 06:03:02;;;;;;;12.27;11.00;;;;;;;;;;5000462;28;20222;-48
2023/10/21 06:05:28;;;;;;;14.37;12.87;;;;;;;;;;5000353;28;20205;-48
2023/10/21 06:07:54;;;;;;;12.33;11.13;;;;;;;;;;5000546;28;20212;-48
2023/10/21 06:10:20;;;;;;;13.23;11.83;;;;;;;;;;5000274;28;20205;-49
2023/10/21 06:12:46;;;;;;;12.70;11.40;;;;;;;;;;4999945;28;20194;-49
2023/10/21 06:15:14;;;;;;;13.37;11.97;;;;;;;;;;5001802;28;20641;-49
2023/10/21 06:17:40;;;;;;;11.33;10.20;;;;;;;;;;4999318;28;20198;-49
2023/10/21 06:20:07;;;;;;;13.03;11.73;;;;;;;;;;4999617;28;20204;-48
2023/10/21 06:22:33;;;;;;;12.73;11.27;;;;;;;;;;4999021;28;20233;-47
2023/10/21 06:24:59;;;;;;;11.80;10.70;;;;;;;;;;4998921;28;20206;-47
2023/10/21 06:27:26;;;;;;;12.67;11.47;;;;;;;;;;5000140;28;20267;-47
2023/10/21 06:29:52;;;;;;;11.00;9.97;;;;;;;;;;4999770;28;20224;-47
2023/10/21 06:32:19;;;;;;;11.60;10.50;;;;;;;;;;4999775;28;20209;-48
2023/10/21 06:34:45;;;;;;;12.57;11.27;;;;;;;;;;4999971;28;20209;-47
2023/10/21 06:37:12;;;;;;;12.03;10.90;;;;;;;;;;4999630;28;20205;-47
2023/10/21 06:39:37;;;;;;;12.43;10.67;;;;;;;;;;5000195;28;20194;-47
2023/10/21 06:42:04;;;;;;;11.83;10.57;;;;;;;;;;5013153;28;20243;-47
2023/10/21 06:44:30;;;;;;;10.97;9.97;;;;;;;;;;5013453;28;20244;-47
2023/10/21 06:46:56;;;;;;;11.77;10.67;;;;;;;;;;5013254;28;20205;-50
2023/10/21 06:49:23;;;;;;;12.13;10.93;;;;;;;;;;5013003;28;20202;-47
2023/10/21 06:51:49;;;;;;;11.30;10.10;;;;;;;;;;5013171;28;20198;-47
2023/10/21 06:54:17;;;;;;;12.10;10.90;;;;;;;;;;5013323;28;20217;-47
2023/10/21 06:56:43;;;;;;;13.00;11.60;;;;;;;;;;5013085;28;20198;-47
2023/10/21 06:59:09;;;;;;;11.90;10.47;;;;;;;;;;5012896;28;20417;-47
2023/10/21 07:01:35;;;;;;;10.87;9.77;;;;;;;;;;5012821;28;20225;-47
2023/10/21 07:04:01;;;;;;;11.73;10.63;;;;;;;;;;5013075;28;20205;-47
2023/10/21 07:06:28;;;;;;;10.67;9.57;;;;;;;;;;5012932;28;20221;-47
2023/10/21 07:08:54;;;;;;;11.10;10.00;;;;;;;;;;5012875;28;20201;-49
2023/10/21 07:11:20;;;;;;;11.07;10.03;;;;;;;;;;5012668;28;20205;-47
2023/10/21 07:13:47;;;;;;;9.90;8.93;;;;;;;;;;5012917;28;20215;-47
2023/10/21 07:16:13;;;;;;;10.17;9.17;;;;;;;;;;5012656;28;20209;-47
2023/10/21 07:18:39;;;;;;;9.67;8.73;;;;;;;;;;5012677;28;20225;-47
2023/10/21 07:21:05;;;;;;;10.67;9.57;;;;;;;;;;5012540;28;20193;-49
2023/10/21 07:23:33;;;;;;;9.93;8.93;;;;;;;;;;5012736;28;20190;-47
2023/10/21 07:25:59;;;;;;;8.70;7.90;;;;;;;;;;5012627;28;20194;-47
2023/10/21 07:28:26;;;;;;;9.77;8.83;;;;;;;;;;5012422;28;20585;-47
2023/10/21 07:30:54;;;;;;;10.83;9.73;;;;;;;;;;5012306;28;20202;-54
2023/10/21 07:33:20;;;;;;;9.37;8.40;;;;;;;;;;5012356;28;20197;-48
2023/10/21 07:35:50;;;;;;;9.90;8.90;;;;;;;;;;5012549;28;20577;-47
2023/10/21 07:38:16;;;;;;;9.37;8.37;;;;;;;;;;5012268;28;20627;-47
2023/10/21 07:40:43;;;;;;;9.83;8.83;;;;;;;;;;5012357;28;20197;-50
2023/10/21 07:43:09;;;;;;;10.20;9.07;;;;;;;;;;5011932;28;20239;-47
2023/10/21 07:45:35;;;;;;;10.23;9.10;;;;;;;;;;5012337;28;20197;-47
2023/10/21 07:48:02;;;;;;;11.10;10.00;;;;;;;;;;5012322;28;20201;-48
2023/10/21 07:50:28;;;;;;;10.63;9.43;;;;;;;;;;5012122;28;20217;-50
2023/10/21 07:52:54;;;;;;;11.00;9.73;;;;;;;;;;5012161;28;20226;-48
2023/10/21 07:55:21;;;;;;;10.87;9.77;;;;;;;;;;5011954;28;20201;-48
2023/10/21 07:57:48;;;;;;;11.23;9.97;;;;;;;;;;5012288;28;20196;-51
2023/10/21 08:00:15;;;;;;;10.57;9.57;;;;;;;;;;5012003;28;20278;-54
2023/10/21 08:02:41;;;;;;;10.63;9.17;;;;;;;;;;5011841;28;20317;-52
2023/10/21 08:05:07;;;;;;;10.37;9.27;;;;;;;;;;5011972;28;20251;-48
2023/10/21 08:07:34;;;;;;;10.13;9.13;;;;;;;;;;5011967;28;20747;-49
2023/10/21 08:10:00;;;;;;;9.40;8.50;;;;;;;;;;4998561;28;20743;-50
2023/10/21 08:12:26;;;;;;;8.70;7.90;;;;;;;;;;4998319;28;20750;-48
2023/10/21 08:14:53;;;;;;;11.33;10.17;;;;;;;;;;4998407;28;20256;-48
2023/10/21 08:17:19;;;;;;;11.80;10.60;;;;;;;;;;4998279;28;20197;-49
2023/10/21 08:19:47;;;;;;;12.87;10.90;;;;;;;;;;4998511;28;20292;-48
2023/10/21 08:22:13;;;;;;;10.70;9.63;;;;;;;;;;5000039;28;20237;-49
2023/10/21 08:24:39;;;;;;;13.20;11.90;;;;;;;;;;4996770;28;20198;-50
2023/10/21 08:27:06;;;;;;;11.40;10.20;;;;;;;;;;4998477;28;20271;-48
2023/10/21 08:29:32;;;;;;;12.57;11.10;;;;;;;;;;4999823;28;20205;-51
2023/10/21 08:31:59;;;;;;;13.77;12.37;;;;;;;;;;4998200;28;20213;-50
2023/10/21 08:34:25;;;;;;;13.03;11.60;;;;;;;;;;5001611;28;20229;-51
2023/10/21 08:36:51;;;;;;;15.40;13.03;;;;;;;;;;4998662;28;20271;-47
2023/10/21 08:39:17;;;;;;;15.40;13.40;;;;;;;;;;4998392;28;20204;-51
2023/10/21 08:41:43;;;;;;;17.23;13.47;;;;;;;;;;4999922;28;20233;-50
2023/10/21 08:44:12;;;;;;;13.67;12.10;;;;;;;;;;5002004;28;20320;-48
2023/10/21 08:46:38;;;;;;;14.53;13.13;;;;;;;;;;5002129;28;20211;-50
2023/10/21 08:49:07;;;;;;;14.10;12.70;;;;;;;;;;5002082;28;20731;-51
2023/10/21 08:51:33;;;;;;;16.27;14.13;;;;;;;;;;5002048;28;20233;-48
2023/10/21 08:54:03;;;;;;;13.57;12.20;;;;;;;;;;5001990;28;20272;-51
2023/10/21 08:56:29;;;;;;;14.60;12.37;;;;;;;;;;5003666;28;20205;-51
2023/10/21 08:58:56;;;;;;;15.50;13.90;;;;;;;;;;5001801;28;20593;-51
2023/10/21 09:01:22;;;;;;;14.80;13.20;;;;;;;;;;5001605;28;20332;-48
2023/10/21 09:03:49;;;;;;;15.60;13.23;;;;;;;;;;5001659;28;20280;-48
2023/10/21 09:06:19;;;;;;;14.20;12.70;;;;;;;;;;5001819;28;20221;-48
2023/10/21 09:08:47;;;;;;;14.60;12.73;;;;;;;;;;5001666;28;20209;-48
2023/10/21 09:11:16;;;;;;;13.10;11.70;;;;;;;;;;5001640;28;20293;-48
2023/10/21 09:13:42;;;;;;;13.47;12.07;;;;;;;;;;5001481;28;20206;-48
2023/10/21 09:16:21;;;;;;;14.80;13.30;;;;;;;;;;5001719;28;20722;-49
2023/10/21 09:18:57;;;;;;;14.50;13.00;;;;;;;;;;5001601;28;20202;-51
2023/10/21 09:21:37;;;;;;;14.17;12.67;;;;;;;;;;5001403;28;20197;-48
2023/10/21 09:24:03;;;;;;;12.63;11.43;;;;;;;;;;5001527;28;20213;-48
2023/10/21 09:26:36;;;;;;;13.13;11.83;;;;;;;;;;5000924;28;20259;-49
2023/10/21 09:29:06;;;;;;;13.00;11.80;;;;;;;;;;5003253;28;20194;-50
2023/10/21 09:31:41;;;;;;;13.00;11.70;;;;;;;;;;4999378;28;20300;-49
2023/10/21 09:34:07;;;;;;;11.97;10.83;;;;;;;;;;5001161;28;20209;-49
2023/10/21 09:36:40;;;;;;;10.17;9.17;;;;;;;;;;5001174;28;20233;-52
2023/10/21 09:39:06;;;;;;;10.77;9.17;;;;;;;;;;5001120;28;20201;-49
2023/10/21 09:41:32;;;;;;;10.40;9.40;;;;;;;;;;5000906;28;20202;-49
2023/10/21 09:44:01;;;;;;;10.00;9.00;;;;;;;;;;5001162;28;21202;-49
2023/10/21 09:46:28;;;;;;;9.73;8.83;;;;;;;;;;5009402;28;20672;-49
2023/10/21 09:48:56;;;;;;;8.63;7.70;;;;;;;;;;5014635;28;20204;-49
2023/10/21 09:51:24;;;;;;;8.77;7.97;;;;;;;;;;5014387;28;20190;-49
2023/10/21 09:53:55;;;;;;;9.33;8.47;;;;;;;;;;5010901;28;20198;-49
2023/10/21 09:56:23;;;;;;;7.20;6.60;;;;;;;;;;5013695;28;20680;-48
2023/10/21 09:58:50;;;;;;;7.77;7.07;;;;;;;;;;5014016;28;20197;-49
2023/10/21 10:01:23;;;;;;;7.37;6.67;;;;;;;;;;5013918;28;20201;-49
2023/10/21 10:03:50;;;;;;;6.47;5.70;;;;;;;;;;5013972;28;20273;-49
2023/10/21 10:06:18;;;;;;;6.93;6.33;;;;;;;;;;5013943;28;20252;-49
2023/10/21 10:08:45;;;;;;;6.40;5.80;;;;;;;;;;5013745;28;20225;-49
2023/10/21 10:11:15;;;;;;;7.80;7.10;;;;;;;;;;5013710;28;20209;-49
2023/10/21 10:13:43;;;;;;;7.63;6.93;;;;;;;;;;5013519;28;20201;-49
2023/10/21 10:16:22;;;;;;;8.07;7.27;;;;;;;;;;5013540;28;20198;-49
2023/10/21 10:18:50;;;;;;;7.97;7.17;;;;;;;;;;5013365;28;20201;-49
2023/10/21 10:21:16;;;;;;;7.47;6.83;;;;;;;;;;5013600;28;20714;-49
2023/10/21 10:23:48;;;;;;;7.90;7.20;;;;;;;;;;5013238;28;20229;-48
2023/10/21 10:26:27;;;;;;;7.57;6.77;;;;;;;;;;5013649;28;20205;-48
2023/10/21 10:28:53;;;;;;;7.57;6.77;;;;;;;;;;5014041;28;20213;-48
2023/10/21 10:31:21;;;;;;;5.90;5.40;;;;;;;;;;5013764;28;20228;-49
2023/10/21 10:33:55;;;;;;;5.90;5.40;;;;;;;;;;5013821;28;20205;-48
2023/10/21 10:36:28;;;;;;;7.17;5.47;;;;;;;;;;5003539;28;20201;-48
2023/10/21 10:38:54;;;;;;;6.57;4.80;;;;;;;;;;5000129;28;20276;-48
2023/10/21 10:41:22;;;;;;;4.57;4.00;;;;;;;;;;4999873;28;20197;-48
2023/10/21 10:43:51;;;;;;;5.83;4.33;;;;;;;;;;4999611;28;20723;-48
2023/10/21 10:46:18;;;;;;;4.27;3.87;;;;;;;;;;4999890;28;20208;-48
2023/10/21 10:48:46;;;;;;;3.77;3.17;;;;;;;;;;4999813;28;20292;-49
2023/10/21 10:51:15;;;;;;;5.33;3.37;;;;;;;;;;5001471;28;20276;-49
2023/10/21 10:53:44;;;;;;;3.20;2.73;;;;;;;;;;5001437;28;20204;-49
2023/10/21 10:56:14;;;;;;;3.73;2.70;;;;;;;;;;5001440;28;20197;-49
2023/10/21 10:58:45;;;;;;;2.57;2.37;;;;;;;;;;4999593;28;20288;-49
2023/10/21 11:01:17;;;;;;;2.60;2.40;;;;;;;;;;4999463;28;20232;-49
2023/10/21 11:03:43;;;;;;;2.43;2.23;;;;;;;;;;4998887;28;20225;-49
2023/10/21 11:06:12;;;;;;;2.67;2.13;;;;;;;;;;5000701;28;20206;-49
2023/10/21 11:08:38;;;;;;;2.50;2.30;;;;;;;;;;4999457;28;20202;-52
2023/10/21 11:11:04;;;;;;;2.00;1.80;;;;;;;;;;5001343;28;20760;-49
2023/10/21 11:13:30;;;;;;;2.63;2.20;;;;;;;;;;4999804;28;20268;-49
2023/10/21 11:15:58;;;;;;;3.07;2.00;;;;;;;;;;4999205;28;20736;-49
2023/10/21 11:18:25;;;;;;;2.30;1.73;;;;;;;;;;5000992;28;20194;-49
2023/10/21 11:20:52;;;;;;;2.07;1.57;;;;;;;;;;4999207;28;20194;-49
2023/10/21 11:23:19;;;;;;;4.00;1.30;;;;;;;;;;5000852;28;20250;-49
2023/10/21 11:25:47;;;;;;;4.17;1.80;;;;;;;;;;4999096;28;20205;-48
2023/10/21 11:28:14;;;;;;;2.53;1.30;;;;;;;;;;5000928;28;20199;-49
2023/10/21 11:30:41;;;;;;;3.20;1.43;;;;;;;;;;5000672;28;20200;-48
2023/10/21 11:33:10;;;;;;;2.10;1.50;;;;;;;;;;4999025;28;20200;-49
2023/10/21 11:35:36;;;;;;;2.27;1.60;;;;;;;;;;4998961;28;20202;-49
2023/10/21 11:38:02;;;;;;;1.40;1.30;;;;;;;;;;4999134;28;20227;-48
2023/10/21 11:40:28;;;;;;;1.87;1.50;;;;;;;;;;5000455;28;20197;-49
2023/10/21 11:42:58;;;;;;;1.97;1.40;;;;;;;;;;5000207;28;20279;-49
2023/10/21 11:45:24;;;;;;;1.30;1.20;;;;;;;;;;5000455;28;20306;-49
2023/10/21 11:47:53;;;;;;;3.50;3.20;;;;;;;;;;5000527;28;20289;-48
2023/10/21 11:50:20;;;;;;;4.70;4.13;;;;;;;;;;5000564;28;20205;-48
2023/10/21 11:52:46;;;;;;;8.00;5.37;;;;;;;;;;4998730;28;20211;-49
2023/10/21 12:11:14;;;;;;;1.07;0.97;;;;;;;;;;5000249;28;20193;-49
2023/10/21 12:13:52;;;;;;;1.20;1.10;;;;;;;;;;5000143;28;20540;-49
2023/10/21 12:33:08;;;;;;;1.07;1.07;;;;;;;;;;4999885;28;20273;-50
2023/10/21 12:38:38;;;;;;;0.67;0.67;;;;;;;;;;4998322;28;20256;-50
2023/10/21 12:41:37;;;;;;;1.00;0.80;;;;;;;;;;4997862;28;20220;-50
2023/10/21 12:43:39;;;;;;;1.17;0.77;;;;;;;;;;4996402;28;20243;-50
2023/10/21 12:46:17;;;;;;;0.97;0.90;;;;;;;;;;4999942;28;20288;-50
2023/10/21 12:48:43;;;;;;;1.20;0.90;;;;;;;;;;4998284;28;20827;-51
2023/10/21 12:51:14;;;;;;;1.40;1.20;;;;;;;;;;4998349;28;20295;-51
2023/10/21 12:53:41;;;;;;;1.27;1.07;;;;;;;;;;4999837;28;20278;-51
2023/10/21 12:56:07;;;;;;;1.30;1.17;;;;;;;;;;4999798;28;20209;-53
2023/10/21 12:58:34;;;;;;;1.17;0.90;;;;;;;;;;4998088;28;20577;-51
2023/10/21 13:01:00;;;;;;;1.70;1.60;;;;;;;;;;5001615;28;20204;-51
2023/10/21 13:03:26;;;;;;;2.63;1.50;;;;;;;;;;4999624;28;20307;-50
2023/10/21 13:05:52;;;;;;;1.50;1.30;;;;;;;;;;5001284;28;20296;-50
2023/10/21 13:08:18;;;;;;;2.23;1.37;;;;;;;;;;4999775;28;20204;-50
2023/10/21 13:10:47;;;;;;;1.50;1.30;;;;;;;;;;5001365;28;20193;-51
2023/10/21 13:13:16;;;;;;;1.20;1.10;;;;;;;;;;4999713;28;20208;-51
2023/10/21 13:15:43;;;;;;;1.60;1.50;;;;;;;;;;5001310;28;20219;-50
2023/10/21 13:18:09;;;;;;;1.93;1.10;;;;;;;;;;5000137;28;20243;-50
2023/10/21 13:20:35;;;;;;;1.70;1.33;;;;;;;;;;5001264;28;20212;-51
2023/10/21 13:23:04;;;;;;;4.73;1.00;;;;;;;;;;4999480;28;20232;-51
2023/10/21 13:25:30;;;;;;;1.50;0.90;;;;;;;;;;4999501;28;20653;-51
2023/10/21 13:27:57;;;;;;;3.77;0.80;;;;;;;;;;5001508;28;20302;-51
2023/10/21 13:30:23;;;;;;;1.37;0.90;;;;;;;;;;5003028;28;20205;-50
2023/10/21 13:32:51;;;;;;;1.97;1.17;;;;;;;;;;5002837;28;20308;-50
2023/10/21 13:35:17;;;;;;;1.70;1.20;;;;;;;;;;5004573;28;20721;-51
2023/10/21 13:37:44;;;;;;;0.97;0.97;;;;;;;;;;5002757;28;20204;-51
2023/10/21 13:40:14;;;;;;;2.03;1.30;;;;;;;;;;5001283;28;20321;-51
2023/10/21 13:42:41;;;;;;;1.27;1.07;;;;;;;;;;5002589;28;20240;-51
2023/10/21 13:45:19;;;;;;;2.70;2.50;;;;;;;;;;5001097;28;20282;-51
2023/10/21 13:47:45;;;;;;;1.87;1.17;;;;;;;;;;5004511;28;20653;-51
2023/10/21 13:50:15;;;;;;;2.30;1.90;;;;;;;;;;5000918;28;20296;-50
2023/10/21 13:52:41;;;;;;;1.50;1.00;;;;;;;;;;5002552;28;20234;-50
2023/10/21 13:55:09;;;;;;;2.07;1.57;;;;;;;;;;5002600;28;20239;-51
2023/10/21 13:57:35;;;;;;;1.23;1.13;;;;;;;;;;5002470;28;20204;-50
2023/10/21 14:00:06;;;;;;;1.13;1.03;;;;;;;;;;5001463;28;20295;-51
2023/10/21 14:02:33;;;;;;;2.23;1.70;;;;;;;;;;5004078;28;20699;-50
2023/10/21 14:05:10;;;;;;;1.27;0.97;;;;;;;;;;5004150;28;20754;-51
2023/10/21 14:07:36;;;;;;;1.47;1.23;;;;;;;;;;5003964;28;20574;-51
2023/10/21 14:10:07;;;;;;;1.87;0.90;;;;;;;;;;5002576;28;20300;-52
2023/10/21 14:12:33;;;;;;;1.30;1.20;;;;;;;;;;5002282;28;20744;-51
2023/10/21 14:15:05;;;;;;;1.93;1.20;;;;;;;;;;5002128;28;20198;-52
2023/10/21 14:17:35;;;;;;;2.07;1.40;;;;;;;;;;5002553;28;20282;-51
2023/10/21 14:20:01;;;;;;;1.87;1.20;;;;;;;;;;5000269;28;20206;-52
2023/10/21 14:22:27;;;;;;;1.20;1.07;;;;;;;;;;5003628;28;20296;-52
2023/10/21 14:24:53;;;;;;;1.40;1.00;;;;;;;;;;5001683;28;20243;-52
2023/10/21 14:27:19;;;;;;;1.43;1.00;;;;;;;;;;5001730;28;20201;-52
2023/10/21 14:29:46;;;;;;;0.70;0.70;;;;;;;;;;5003276;28;20205;-51
2023/10/21 14:32:13;;;;;;;1.60;1.00;;;;;;;;;;5001421;28;20217;-52
2023/10/21 14:34:40;;;;;;;1.70;1.00;;;;;;;;;;5003094;28;20205;-52
2023/10/21 14:37:07;;;;;;;1.53;0.80;;;;;;;;;;4999654;28;20602;-51
2023/10/21 14:39:34;;;;;;;0.93;0.90;;;;;;;;;;5002496;28;20721;-51
2023/10/21 14:42:00;;;;;;;1.00;0.90;;;;;;;;;;5001115;28;20242;-50
2023/10/21 14:44:26;;;;;;;1.20;1.10;;;;;;;;;;5004617;28;20200;-51
2023/10/21 14:46:52;;;;;;;3.73;1.60;;;;;;;;;;5001226;28;20316;-51
2023/10/21 14:49:18;;;;;;;1.37;1.23;;;;;;;;;;5003117;28;20193;-51
2023/10/21 14:51:45;;;;;;;1.33;0.93;;;;;;;;;;5001226;28;20193;-51
2023/10/21 14:54:11;;;;;;;2.77;1.70;;;;;;;;;;5004477;28;20206;-50
2023/10/21 14:56:37;;;;;;;1.73;1.20;;;;;;;;;;5002760;28;20599;-51
2023/10/21 14:59:05;;;;;;;1.80;1.63;;;;;;;;;;4999243;28;20910;-51
2023/10/21 15:01:31;;;;;;;1.20;1.00;;;;;;;;;;5004818;28;20569;-51